createdAt,value
2022-09-02T00:00:22.004Z,62.73
2022-09-02T00:01:02.284Z,63.15
2022-09-02T00:01:40.218Z,62.20
2022-09-02T00:02:13.173Z,62.88
2022-09-02T00:02:49.394Z,62.83
2022-09-02T00:03:22.485Z,62.33
2022-09-02T00:03:58.462Z,62.72
2022-09-02T00:04:32.015Z,62.70
2022-09-02T00:05:05.426Z,62.60
2022-09-02T00:05:38.146Z,63.67
2022-09-02T00:06:12.275Z,62.92
2022-09-02T00:06:46.636Z,63.13
2022-09-02T00:07:19.155Z,62.65
2022-09-02T00:07:52.665Z,62.83
2022-09-02T00:08:26.827Z,62.70
2022-09-02T00:09:00.177Z,62.55
2022-09-02T00:09:33.865Z,62.90
2022-09-02T00:10:06.979Z,62.88
2022-09-02T00:10:42.171Z,63.13
2022-09-02T00:11:18.413Z,63.17
2022-09-02T00:11:52.527Z,63.33
2022-09-02T00:12:26.010Z,62.42
2022-09-02T00:12:58.596Z,62.83
2022-09-02T00:13:31.457Z,62.88
2022-09-02T00:14:12.013Z,62.80
2022-09-02T00:14:44.542Z,62.75
2022-09-02T00:15:17.094Z,62.88
2022-09-02T00:15:49.776Z,63.03
2022-09-02T00:16:25.117Z,62.47
2022-09-02T00:17:00.735Z,62.47
2022-09-02T00:17:33.475Z,62.83
2022-09-02T00:18:14.161Z,62.58
2022-09-02T00:18:49.082Z,62.78
2022-09-02T00:19:24.248Z,62.60
2022-09-02T00:19:57.832Z,62.72
2022-09-02T00:20:30.561Z,62.72
2022-09-02T00:21:03.956Z,62.53
2022-09-02T00:21:38.081Z,62.67
2022-09-02T00:22:10.578Z,63.10
2022-09-02T00:22:43.153Z,62.88
2022-09-02T00:23:17.668Z,63.17
2022-09-02T00:23:51.705Z,63.00
2022-09-02T00:24:26.045Z,62.75
2022-09-02T00:24:58.627Z,62.50
2022-09-02T00:25:31.153Z,62.70
2022-09-02T00:26:04.668Z,62.95
2022-09-02T00:26:37.197Z,62.60
2022-09-02T00:27:09.727Z,62.92
2022-09-02T00:27:43.287Z,62.83
2022-09-02T00:28:17.261Z,62.90
2022-09-02T00:28:55.875Z,62.63
2022-09-02T00:29:30.856Z,63.00
2022-09-02T00:30:04.376Z,63.28
2022-09-02T00:30:37.438Z,62.38
2022-09-02T00:31:11.077Z,62.58
2022-09-02T00:31:44.860Z,63.35
2022-09-02T00:32:17.484Z,62.70
2022-09-02T00:32:51.285Z,62.88
2022-09-02T00:33:23.913Z,62.72
2022-09-02T00:33:56.875Z,63.22
2022-09-02T00:34:30.581Z,62.78
2022-09-02T00:35:03.559Z,62.42
2022-09-02T00:35:36.366Z,62.88
2022-09-02T00:36:10.422Z,62.72
2022-09-02T00:36:43.176Z,62.38
2022-09-02T00:37:16.049Z,62.58
2022-09-02T00:37:48.675Z,63.00
2022-09-02T00:38:22.338Z,63.00
2022-09-02T00:38:57.503Z,62.65
2022-09-02T00:39:31.218Z,62.70
2022-09-02T00:40:05.966Z,62.78
2022-09-02T00:40:39.627Z,63.28
2022-09-02T00:41:14.568Z,62.72
2022-09-02T00:41:47.380Z,63.17
2022-09-02T00:42:20.531Z,63.25
2022-09-02T00:42:54.835Z,63.10
2022-09-02T00:43:40.312Z,63.00
2022-09-02T00:44:15.109Z,62.80
2022-09-02T00:44:49.616Z,62.55
2022-09-02T00:45:22.463Z,62.75
2022-09-02T00:45:55.827Z,62.58
2022-09-02T00:46:31.130Z,62.97
2022-09-02T00:47:04.026Z,62.88
2022-09-02T00:47:36.900Z,62.70
2022-09-02T00:48:10.379Z,62.95
2022-09-02T00:48:46.294Z,63.45
2022-09-02T00:49:25.134Z,63.35
2022-09-02T00:50:00.151Z,62.90
2022-09-02T00:50:36.768Z,62.65
2022-09-02T00:51:11.056Z,63.00
2022-09-02T00:51:50.657Z,62.70
2022-09-02T00:52:25.923Z,63.00
2022-09-02T00:53:04.136Z,63.10
2022-09-02T00:53:39.487Z,63.10
2022-09-02T00:54:15.411Z,62.72
2022-09-02T00:54:50.834Z,62.40
2022-09-02T00:55:28.196Z,62.78
2022-09-02T00:56:02.432Z,63.17
2022-09-02T00:56:36.622Z,63.00
2022-09-02T00:57:15.801Z,62.97
2022-09-02T00:57:50.953Z,62.97
2022-09-02T00:58:27.237Z,63.10
2022-09-02T00:59:01.850Z,63.05
2022-09-02T00:59:44.946Z,63.00
2022-09-02T01:00:20.514Z,63.13
2022-09-02T01:00:57.927Z,63.17
2022-09-02T01:01:30.666Z,63.30
2022-09-02T01:02:03.438Z,62.78
2022-09-02T01:02:38.062Z,62.90
2022-09-02T01:03:13.168Z,62.80
2022-09-02T01:03:46.962Z,62.65
2022-09-02T01:04:19.536Z,62.85
2022-09-02T01:04:56.855Z,62.55
2022-09-02T01:05:32.276Z,62.97
2022-09-02T01:06:07.026Z,62.38
2022-09-02T01:06:39.949Z,62.60
2022-09-02T01:07:13.170Z,63.80
2022-09-02T01:07:46.982Z,62.97
2022-09-02T01:08:25.155Z,62.75
2022-09-02T01:09:01.702Z,64.07
2022-09-02T01:09:36.274Z,63.58
2022-09-02T01:10:12.782Z,62.80
2022-09-02T01:10:45.817Z,62.42
2022-09-02T01:11:19.979Z,63.08
2022-09-02T01:11:55.048Z,62.60
2022-09-02T01:12:29.795Z,63.03
2022-09-02T01:13:07.038Z,62.38
2022-09-02T01:13:43.853Z,63.20
2022-09-02T01:14:17.077Z,63.20
2022-09-02T01:14:49.818Z,62.70
2022-09-02T01:15:23.429Z,62.63
2022-09-02T01:16:08.627Z,62.83
2022-09-02T01:16:44.624Z,62.38
2022-09-02T01:17:19.490Z,62.85
2022-09-02T01:17:52.422Z,62.80
2022-09-02T01:18:29.386Z,62.47
2022-09-02T01:19:07.796Z,63.00
2022-09-02T01:19:46.202Z,62.97
2022-09-02T01:20:25.429Z,62.80
2022-09-02T01:21:00.787Z,62.80
2022-09-02T01:21:34.428Z,62.92
2022-09-02T01:22:17.212Z,62.63
2022-09-02T01:22:52.141Z,62.67
2022-09-02T01:23:28.186Z,63.03
2022-09-02T01:24:01.768Z,63.13
2022-09-02T01:24:35.462Z,62.83
2022-09-02T01:25:12.310Z,62.95
2022-09-02T01:25:47.141Z,63.15
2022-09-02T01:26:20.056Z,62.42
2022-09-02T01:26:54.836Z,62.63
2022-09-02T01:27:28.788Z,62.83
2022-09-02T01:28:04.282Z,62.83
2022-09-02T01:28:37.444Z,62.90
2022-09-02T01:29:10.962Z,62.65
2022-09-02T01:29:43.751Z,63.25
2022-09-02T01:30:20.039Z,62.78
2022-09-02T01:30:55.527Z,62.75
2022-09-02T01:31:28.352Z,62.92
2022-09-02T01:32:01.049Z,63.15
2022-09-02T01:32:35.252Z,62.45
2022-09-02T01:33:08.255Z,62.83
2022-09-02T01:33:41.835Z,62.80
2022-09-02T01:34:17.468Z,63.53
2022-09-02T01:34:50.293Z,63.50
2022-09-02T01:35:23.666Z,62.50
2022-09-02T01:35:57.859Z,63.00
2022-09-02T01:36:30.405Z,62.53
2022-09-02T01:37:03.312Z,62.45
2022-09-02T01:37:38.839Z,62.63
2022-09-02T01:38:13.234Z,62.75
2022-09-02T01:38:48.127Z,61.97
2022-09-02T01:39:20.714Z,62.55
2022-09-02T01:39:54.774Z,62.70
2022-09-02T01:40:30.007Z,63.13
2022-09-02T01:41:02.749Z,63.50
2022-09-02T01:41:36.928Z,63.80
2022-09-02T01:42:09.852Z,63.15
2022-09-02T01:42:44.382Z,63.65
2022-09-02T01:43:20.548Z,64.38
2022-09-02T01:43:54.614Z,65.20
2022-09-02T01:44:27.721Z,65.00
2022-09-02T01:45:01.552Z,65.55
2022-09-02T01:45:34.528Z,66.45
2022-09-02T01:46:07.172Z,65.82
2022-09-02T01:46:40.864Z,66.57
2022-09-02T01:47:14.570Z,67.03
2022-09-02T01:47:47.239Z,67.03
2022-09-02T01:48:22.013Z,66.05
2022-09-02T01:48:56.545Z,67.05
2022-09-02T01:49:29.142Z,67.60
2022-09-02T01:50:07.101Z,67.80
2022-09-02T01:50:47.013Z,67.63
2022-09-02T01:51:22.394Z,67.40
2022-09-02T01:51:56.329Z,67.95
2022-09-02T01:52:29.726Z,66.65
2022-09-02T01:53:03.940Z,67.00
2022-09-02T01:53:39.362Z,68.07
2022-09-02T01:54:12.839Z,67.80
2022-09-02T01:54:45.428Z,66.47
2022-09-02T01:55:19.438Z,66.95
2022-09-02T01:55:52.486Z,65.78
2022-09-02T01:56:25.133Z,65.65
2022-09-02T01:56:59.531Z,65.28
2022-09-02T01:57:32.148Z,64.78
2022-09-02T01:58:04.767Z,64.30
2022-09-02T01:58:38.654Z,64.57
2022-09-02T01:59:17.664Z,64.35
2022-09-02T01:59:50.365Z,63.60
2022-09-02T02:00:23.886Z,63.30
2022-09-02T02:00:57.453Z,62.92
2022-09-02T02:01:30.629Z,63.45
2022-09-02T02:02:07.131Z,63.28
2022-09-02T02:02:41.038Z,63.85
2022-09-02T02:03:17.233Z,62.70
2022-09-02T02:03:50.051Z,62.72
2022-09-02T02:04:25.377Z,63.20
2022-09-02T02:04:59.895Z,63.42
2022-09-02T02:05:32.895Z,62.92
2022-09-02T02:06:12.163Z,63.08
2022-09-02T02:06:48.270Z,62.92
2022-09-02T02:07:25.424Z,63.03
2022-09-02T02:07:59.484Z,63.22
2022-09-02T02:08:33.509Z,62.72
2022-09-02T02:09:06.074Z,63.22
2022-09-02T02:09:40.174Z,62.97
2022-09-02T02:10:14.674Z,62.80
2022-09-02T02:10:47.501Z,62.40
2022-09-02T02:11:22.972Z,62.80
2022-09-02T02:11:58.792Z,62.67
2022-09-02T02:12:33.743Z,62.28
2022-09-02T02:13:09.900Z,62.55
2022-09-02T02:13:43.961Z,62.67
2022-09-02T02:14:17.070Z,62.55
2022-09-02T02:14:55.600Z,63.20
2022-09-02T02:16:02.392Z,62.80
2022-09-02T02:16:36.069Z,62.77
2022-09-02T02:17:08.757Z,62.97
2022-09-02T02:17:41.592Z,63.08
2022-09-02T02:18:15.190Z,62.70
2022-09-02T02:18:47.844Z,62.50
2022-09-02T02:19:20.388Z,63.05
2022-09-02T02:19:55.118Z,63.15
2022-09-02T02:20:27.756Z,63.45
2022-09-02T02:21:00.320Z,63.17
2022-09-02T02:21:34.100Z,63.08
2022-09-02T02:22:06.656Z,63.63
2022-09-02T02:22:39.242Z,63.30
2022-09-02T02:23:13.150Z,62.83
2022-09-02T02:23:47.222Z,62.50
2022-09-02T02:24:19.872Z,62.53
2022-09-02T02:24:53.411Z,62.92
2022-09-02T02:25:26.363Z,63.17
2022-09-02T02:26:00.174Z,63.15
2022-09-02T02:26:33.886Z,62.70
2022-09-02T02:27:07.403Z,62.58
2022-09-02T02:27:40.759Z,62.53
2022-09-02T02:28:18.291Z,62.83
2022-09-02T02:28:51.360Z,62.28
2022-09-02T02:29:24.282Z,62.63
2022-09-02T02:29:57.976Z,62.50
2022-09-02T02:30:30.743Z,62.90
2022-09-02T02:31:05.724Z,62.40
2022-09-02T02:31:39.445Z,62.47
2022-09-02T02:32:13.754Z,62.63
2022-09-02T02:32:47.330Z,62.72
2022-09-02T02:33:23.488Z,62.63
2022-09-02T02:34:04.072Z,62.00
2022-09-02T02:34:38.242Z,62.10
2022-09-02T02:35:11.585Z,62.58
2022-09-02T02:35:44.497Z,61.92
2022-09-02T02:36:18.328Z,62.22
2022-09-02T02:36:50.904Z,62.00
2022-09-02T02:37:25.601Z,62.55
2022-09-02T02:37:59.610Z,62.63
2022-09-02T02:38:38.408Z,61.75
2022-09-02T02:39:12.945Z,62.72
2022-09-02T02:39:46.595Z,62.17
2022-09-02T02:40:21.603Z,62.05
2022-09-02T02:40:57.500Z,61.60
2022-09-02T02:41:32.630Z,62.05
2022-09-02T02:42:06.629Z,61.92
2022-09-02T02:42:39.810Z,61.72
2022-09-02T02:43:13.372Z,62.30
2022-09-02T02:43:47.319Z,61.97
2022-09-02T02:44:20.152Z,62.15
2022-09-02T02:44:53.752Z,61.75
2022-09-02T02:45:26.370Z,62.42
2022-09-02T02:45:59.158Z,62.33
2022-09-02T02:46:35.622Z,62.63
2022-09-02T02:47:09.679Z,61.83
2022-09-02T02:47:46.128Z,61.83
2022-09-02T02:48:19.814Z,61.58
2022-09-02T02:48:52.336Z,61.78
2022-09-02T02:49:26.934Z,62.03
2022-09-02T02:49:59.687Z,62.00
2022-09-02T02:50:32.854Z,62.05
2022-09-02T02:51:06.554Z,61.97
2022-09-02T02:51:40.612Z,62.42
2022-09-02T02:52:14.095Z,62.25
2022-09-02T02:52:47.121Z,62.38
2022-09-02T02:53:20.787Z,61.85
2022-09-02T02:53:56.877Z,62.22
2022-09-02T02:54:35.085Z,61.97
2022-09-02T02:55:11.562Z,61.92
2022-09-02T02:55:44.984Z,62.60
2022-09-02T02:56:22.848Z,61.67
2022-09-02T02:56:57.815Z,62.50
2022-09-02T02:57:30.809Z,62.70
2022-09-02T02:58:03.377Z,62.40
2022-09-02T02:58:36.964Z,62.10
2022-09-02T02:59:09.586Z,63.15
2022-09-02T02:59:42.109Z,62.83
2022-09-02T03:00:21.015Z,62.25
2022-09-02T03:00:54.722Z,62.70
2022-09-02T03:01:28.474Z,62.38
2022-09-02T03:02:02.171Z,62.75
2022-09-02T03:02:35.141Z,62.88
2022-09-02T03:03:10.532Z,62.55
2022-09-02T03:03:44.948Z,63.03
2022-09-02T03:04:18.498Z,63.00
2022-09-02T03:04:54.266Z,62.75
2022-09-02T03:05:29.352Z,62.63
2022-09-02T03:06:03.319Z,62.67
2022-09-02T03:06:36.400Z,62.80
2022-09-02T03:07:10.168Z,62.38
2022-09-02T03:07:43.132Z,62.20
2022-09-02T03:08:20.975Z,62.40
2022-09-02T03:08:56.988Z,61.70
2022-09-02T03:09:29.928Z,62.42
2022-09-02T03:10:04.888Z,61.90
2022-09-02T03:10:41.063Z,62.45
2022-09-02T03:11:14.599Z,62.38
2022-09-02T03:11:47.629Z,62.60
2022-09-02T03:12:21.251Z,62.13
2022-09-02T03:12:54.196Z,62.25
2022-09-02T03:13:27.037Z,62.17
2022-09-02T03:14:03.791Z,62.35
2022-09-02T03:14:37.693Z,62.10
2022-09-02T03:15:12.174Z,62.30
2022-09-02T03:15:46.901Z,62.10
2022-09-02T03:16:20.115Z,62.47
2022-09-02T03:16:53.379Z,62.63
2022-09-02T03:17:26.912Z,62.10
2022-09-02T03:18:00.689Z,62.67
2022-09-02T03:18:33.331Z,62.83
2022-09-02T03:19:07.235Z,62.83
2022-09-02T03:19:40.316Z,62.25
2022-09-02T03:20:15.817Z,62.55
2022-09-02T03:20:50.604Z,62.55
2022-09-02T03:21:23.379Z,62.58
2022-09-02T03:21:56.072Z,62.53
2022-09-02T03:22:30.229Z,62.67
2022-09-02T03:23:03.782Z,62.72
2022-09-02T03:23:37.724Z,62.50
2022-09-02T03:24:12.539Z,63.00
2022-09-02T03:24:45.159Z,62.63
2022-09-02T03:25:21.839Z,62.80
2022-09-02T03:25:56.264Z,62.78
2022-09-02T03:26:34.593Z,62.63
2022-09-02T03:27:07.088Z,62.60
2022-09-02T03:27:44.875Z,62.33
2022-09-02T03:28:18.211Z,62.30
2022-09-02T03:28:54.123Z,62.53
2022-09-02T03:29:27.717Z,62.60
2022-09-02T03:30:01.561Z,62.63
2022-09-02T03:30:34.886Z,62.15
2022-09-02T03:31:08.715Z,62.33
2022-09-02T03:31:41.458Z,62.83
2022-09-02T03:32:14.898Z,62.63
2022-09-02T03:32:50.855Z,62.78
2022-09-02T03:33:23.548Z,62.92
2022-09-02T03:33:56.937Z,62.40
2022-09-02T03:34:32.167Z,62.40
2022-09-02T03:35:07.630Z,62.40
2022-09-02T03:35:43.641Z,62.50
2022-09-02T03:36:25.039Z,62.20
2022-09-02T03:36:57.848Z,62.42
2022-09-02T03:37:30.497Z,62.90
2022-09-02T03:38:04.027Z,62.97
2022-09-02T03:38:36.860Z,62.17
2022-09-02T03:39:10.325Z,62.47
2022-09-02T03:39:46.227Z,62.63
2022-09-02T03:40:22.812Z,62.83
2022-09-02T03:40:58.125Z,62.03
2022-09-02T03:41:32.338Z,62.90
2022-09-02T03:42:05.945Z,62.50
2022-09-02T03:42:39.197Z,62.85
2022-09-02T03:43:14.982Z,62.22
2022-09-02T03:43:48.030Z,62.47
2022-09-02T03:44:20.762Z,63.03
2022-09-02T03:44:54.298Z,62.95
2022-09-02T03:45:26.789Z,62.72
2022-09-02T03:46:00.909Z,62.55
2022-09-02T03:46:35.267Z,62.40
2022-09-02T03:47:08.591Z,62.75
2022-09-02T03:47:46.123Z,62.67
2022-09-02T03:48:19.686Z,62.60
2022-09-02T03:48:52.498Z,62.88
2022-09-02T03:49:27.372Z,62.70
2022-09-02T03:50:03.101Z,62.47
2022-09-02T03:50:39.871Z,62.55
2022-09-02T03:51:15.209Z,62.83
2022-09-02T03:51:48.771Z,62.35
2022-09-02T03:52:21.932Z,62.65
2022-09-02T03:52:55.053Z,62.38
2022-09-02T03:53:28.592Z,62.88
2022-09-02T03:54:04.555Z,62.50
2022-09-02T03:54:37.301Z,62.63
2022-09-02T03:55:11.913Z,62.42
2022-09-02T03:55:45.981Z,62.88
2022-09-02T03:56:21.788Z,62.45
2022-09-02T03:56:56.375Z,63.00
2022-09-02T03:57:29.971Z,62.60
2022-09-02T03:58:07.862Z,62.85
2022-09-02T03:58:44.356Z,62.38
2022-09-02T03:59:16.998Z,62.67
2022-09-02T03:59:49.990Z,62.30
2022-09-02T04:00:25.695Z,62.78
2022-09-02T04:00:58.352Z,62.85
2022-09-02T04:01:34.409Z,62.22
2022-09-02T04:02:10.004Z,62.50
2022-09-02T04:02:43.080Z,62.20
2022-09-02T04:03:18.372Z,62.08
2022-09-02T04:03:53.076Z,62.30
2022-09-02T04:04:25.783Z,62.70
2022-09-02T04:04:58.799Z,62.25
2022-09-02T04:05:32.910Z,62.42
2022-09-02T04:06:10.307Z,62.63
2022-09-02T04:06:44.591Z,62.53
2022-09-02T04:07:17.279Z,62.35
2022-09-02T04:07:52.694Z,62.20
2022-09-02T04:08:27.130Z,62.38
2022-09-02T04:09:03.203Z,62.28
2022-09-02T04:09:35.960Z,62.15
2022-09-02T04:10:10.244Z,62.22
2022-09-02T04:10:45.515Z,62.15
2022-09-02T04:11:20.739Z,62.97
2022-09-02T04:11:56.735Z,62.20
2022-09-02T04:12:32.460Z,62.33
2022-09-02T04:13:05.582Z,62.20
2022-09-02T04:13:39.173Z,62.95
2022-09-02T04:14:12.281Z,61.88
2022-09-02T04:14:45.039Z,62.40
2022-09-02T04:15:19.363Z,62.40
2022-09-02T04:15:53.024Z,61.97
2022-09-02T04:16:29.176Z,62.33
2022-09-02T04:17:07.840Z,61.90
2022-09-02T04:17:42.723Z,61.95
2022-09-02T04:18:18.468Z,62.05
2022-09-02T04:18:52.022Z,62.80
2022-09-02T04:19:24.599Z,62.03
2022-09-02T04:19:57.126Z,62.30
2022-09-02T04:20:29.897Z,61.92
2022-09-02T04:21:03.503Z,62.40
2022-09-02T04:21:38.567Z,62.35
2022-09-02T04:22:12.099Z,62.05
2022-09-02T04:22:46.085Z,62.13
2022-09-02T04:23:18.872Z,62.15
2022-09-02T04:23:53.009Z,63.10
2022-09-02T04:24:27.491Z,62.17
2022-09-02T04:25:00.169Z,62.70
2022-09-02T04:25:33.227Z,62.45
2022-09-02T04:26:09.907Z,62.08
2022-09-02T04:26:44.798Z,62.13
2022-09-02T04:27:20.504Z,62.10
2022-09-02T04:27:53.993Z,62.33
2022-09-02T04:28:27.839Z,62.47
2022-09-02T04:29:00.999Z,61.95
2022-09-02T04:29:36.050Z,62.33
2022-09-02T04:30:10.460Z,62.30
2022-09-02T04:30:46.271Z,61.92
2022-09-02T04:31:22.295Z,62.05
2022-09-02T04:31:55.843Z,61.65
2022-09-02T04:32:29.473Z,62.38
2022-09-02T04:33:03.802Z,62.22
2022-09-02T04:33:38.959Z,62.28
2022-09-02T04:34:12.301Z,61.72
2022-09-02T04:34:46.497Z,62.35
2022-09-02T04:35:24.528Z,61.45
2022-09-02T04:35:57.204Z,62.28
2022-09-02T04:36:30.846Z,61.90
2022-09-02T04:37:08.297Z,61.90
2022-09-02T04:37:41.013Z,62.00
2022-09-02T04:38:14.362Z,62.10
2022-09-02T04:38:48.545Z,62.17
2022-09-02T04:39:23.049Z,62.00
2022-09-02T04:39:58.347Z,62.15
2022-09-02T04:40:32.298Z,61.97
2022-09-02T04:41:09.560Z,62.00
2022-09-02T04:41:42.665Z,61.97
2022-09-02T04:42:18.583Z,62.30
2022-09-02T04:42:55.248Z,62.13
2022-09-02T04:43:28.778Z,62.30
2022-09-02T04:44:02.907Z,62.40
2022-09-02T04:44:39.392Z,62.30
2022-09-02T04:45:12.535Z,62.78
2022-09-02T04:45:47.994Z,62.33
2022-09-02T04:46:22.943Z,62.28
2022-09-02T04:47:07.111Z,61.90
2022-09-02T04:47:40.675Z,62.17
2022-09-02T04:48:14.818Z,62.13
2022-09-02T04:48:48.231Z,62.45
2022-09-02T04:49:22.327Z,62.25
2022-09-02T04:49:58.729Z,61.90
2022-09-02T04:50:32.204Z,61.92
2022-09-02T04:51:07.439Z,62.17
2022-09-02T04:51:40.657Z,62.13
2022-09-02T04:52:16.317Z,62.22
2022-09-02T04:52:48.859Z,62.03
2022-09-02T04:53:21.438Z,62.22
2022-09-02T04:53:55.960Z,62.22
2022-09-02T04:54:28.612Z,61.78
2022-09-02T04:55:07.076Z,62.38
2022-09-02T04:55:42.242Z,62.65
2022-09-02T04:56:21.450Z,62.13
2022-09-02T04:56:54.331Z,61.60
2022-09-02T04:57:29.395Z,62.50
2022-09-02T04:58:02.037Z,62.40
2022-09-02T04:58:35.165Z,62.92
2022-09-02T04:59:09.292Z,63.00
2022-09-02T04:59:43.604Z,62.22
2022-09-02T05:00:18.878Z,62.50
2022-09-02T05:00:54.777Z,62.25
2022-09-02T05:01:32.576Z,62.10
2022-09-02T05:02:10.788Z,61.70
2022-09-02T05:02:44.104Z,62.67
2022-09-02T05:03:17.161Z,62.08
2022-09-02T05:03:54.126Z,61.90
2022-09-02T05:04:28.650Z,61.83
2022-09-02T05:05:01.249Z,62.28
2022-09-02T05:05:39.661Z,61.90
2022-09-02T05:06:15.289Z,61.95
2022-09-02T05:06:48.066Z,62.38
2022-09-02T05:07:25.141Z,62.13
2022-09-02T05:07:58.506Z,62.42
2022-09-02T05:08:31.085Z,62.08
2022-09-02T05:09:08.595Z,61.88
2022-09-02T05:09:43.101Z,61.95
2022-09-02T05:10:16.419Z,62.33
2022-09-02T05:10:53.267Z,62.10
2022-09-02T05:11:31.264Z,62.30
2022-09-02T05:12:05.843Z,62.88
2022-09-02T05:12:45.700Z,61.75
2022-09-02T05:13:18.725Z,62.00
2022-09-02T05:13:53.367Z,62.25
2022-09-02T05:14:27.481Z,62.35
2022-09-02T05:15:03.911Z,62.85
2022-09-02T05:15:40.691Z,62.05
2022-09-02T05:16:16.426Z,62.13
2022-09-02T05:16:53.765Z,61.65
2022-09-02T05:17:26.913Z,62.10
2022-09-02T05:18:01.253Z,62.63
2022-09-02T05:18:39.083Z,62.92
2022-09-02T05:19:14.750Z,61.35
2022-09-02T05:19:55.242Z,61.88
2022-09-02T05:20:28.558Z,62.40
2022-09-02T05:21:06.362Z,62.78
2022-09-02T05:21:42.739Z,62.30
2022-09-02T05:22:19.707Z,62.33
2022-09-02T05:22:53.395Z,62.50
2022-09-02T05:23:26.359Z,61.83
2022-09-02T05:23:59.196Z,61.78
2022-09-02T05:24:32.757Z,62.33
2022-09-02T05:25:11.756Z,61.80
2022-09-02T05:25:45.064Z,62.60
2022-09-02T05:26:18.945Z,62.80
2022-09-02T05:26:54.148Z,62.30
2022-09-02T05:27:26.829Z,61.67
2022-09-02T05:28:01.076Z,62.05
2022-09-02T05:28:34.646Z,62.65
2022-09-02T05:29:08.346Z,62.05
2022-09-02T05:29:45.549Z,62.13
2022-09-02T05:30:19.904Z,62.13
2022-09-02T05:30:52.797Z,62.38
2022-09-02T05:31:28.924Z,62.30
2022-09-02T05:32:01.967Z,62.67
2022-09-02T05:32:37.715Z,62.58
2022-09-02T05:33:13.167Z,62.38
2022-09-02T05:33:47.073Z,63.70
2022-09-02T05:34:24.605Z,62.28
2022-09-02T05:35:00.626Z,62.08
2022-09-02T05:35:33.484Z,63.22
2022-09-02T05:36:12.542Z,63.55
2022-09-02T05:36:46.630Z,62.55
2022-09-02T05:37:20.482Z,62.42
2022-09-02T05:38:00.106Z,62.72
2022-09-02T05:38:34.872Z,62.30
2022-09-02T05:39:09.298Z,62.65
2022-09-02T05:39:44.508Z,63.25
2022-09-02T05:40:17.209Z,63.28
2022-09-02T05:40:57.388Z,62.55
2022-09-02T05:41:30.129Z,62.70
2022-09-02T05:42:07.722Z,62.72
2022-09-02T05:42:42.044Z,62.33
2022-09-02T05:43:16.521Z,62.65
2022-09-02T05:43:49.458Z,63.15
2022-09-02T05:44:23.222Z,62.67
2022-09-02T05:44:56.076Z,62.40
2022-09-02T05:45:30.025Z,62.67
2022-09-02T05:46:08.143Z,62.53
2022-09-02T05:46:46.729Z,62.42
2022-09-02T05:47:22.436Z,62.08
2022-09-02T05:47:55.192Z,62.65
2022-09-02T05:48:48.882Z,62.42
2022-09-02T05:49:22.610Z,63.08
2022-09-02T05:50:01.919Z,62.15
2022-09-02T05:50:38.558Z,62.97
2022-09-02T05:51:11.244Z,62.05
2022-09-02T05:51:46.912Z,62.05
2022-09-02T05:52:21.972Z,62.78
2022-09-02T05:52:59.241Z,62.28
2022-09-02T05:53:32.524Z,62.10
2022-09-02T05:54:05.686Z,62.28
2022-09-02T05:54:40.377Z,62.35
2022-09-02T05:55:16.034Z,62.28
2022-09-02T05:55:50.263Z,62.58
2022-09-02T05:56:23.956Z,62.47
2022-09-02T05:57:00.653Z,62.88
2022-09-02T05:57:34.843Z,62.53
2022-09-02T05:58:13.903Z,62.50
2022-09-02T05:58:47.640Z,62.60
2022-09-02T05:59:21.053Z,63.00
2022-09-02T05:59:56.724Z,62.65
2022-09-02T06:00:34.465Z,61.83
2022-09-02T06:01:11.698Z,62.50
2022-09-02T06:01:45.589Z,62.78
2022-09-02T06:02:18.865Z,62.78
2022-09-02T06:02:52.282Z,62.10
2022-09-02T06:03:31.766Z,62.30
2022-09-02T06:04:06.064Z,62.67
2022-09-02T06:04:41.471Z,62.08
2022-09-02T06:05:18.338Z,62.80
2022-09-02T06:05:59.734Z,62.55
2022-09-02T06:06:38.597Z,62.30
2022-09-02T06:07:13.697Z,62.15
2022-09-02T06:07:47.998Z,62.50
2022-09-02T06:08:23.624Z,62.20
2022-09-02T06:08:56.359Z,62.83
2022-09-02T06:09:28.968Z,62.72
2022-09-02T06:10:04.639Z,63.08
2022-09-02T06:10:42.584Z,62.10
2022-09-02T06:11:18.100Z,62.75
2022-09-02T06:11:52.598Z,62.30
2022-09-02T06:12:31.154Z,62.58
2022-09-02T06:13:05.861Z,61.70
2022-09-02T06:13:42.195Z,62.40
2022-09-02T06:14:17.214Z,62.53
2022-09-02T06:14:49.928Z,62.47
2022-09-02T06:15:23.986Z,62.13
2022-09-02T06:15:57.980Z,62.13
2022-09-02T06:16:33.942Z,62.75
2022-09-02T06:17:07.391Z,62.30
2022-09-02T06:17:48.090Z,63.10
2022-09-02T06:18:20.774Z,62.05
2022-09-02T06:18:56.909Z,62.22
2022-09-02T06:19:32.548Z,62.17
2022-09-02T06:20:07.294Z,61.97
2022-09-02T06:20:40.914Z,62.75
2022-09-02T06:21:15.418Z,62.80
2022-09-02T06:21:52.341Z,62.17
2022-09-02T06:22:24.992Z,62.20
2022-09-02T06:23:00.355Z,62.38
2022-09-02T06:23:35.590Z,62.88
2022-09-02T06:24:10.292Z,62.63
2022-09-02T06:24:43.872Z,62.20
2022-09-02T06:25:24.680Z,61.97
2022-09-02T06:25:57.864Z,62.50
2022-09-02T06:26:31.374Z,62.50
2022-09-02T06:27:04.050Z,62.60
2022-09-02T06:27:38.644Z,62.85
2022-09-02T06:28:14.856Z,62.55
2022-09-02T06:28:50.142Z,62.50
2022-09-02T06:29:24.208Z,62.50
2022-09-02T06:29:59.301Z,62.40
2022-09-02T06:30:32.943Z,62.50
2022-09-02T06:31:09.992Z,62.65
2022-09-02T06:31:46.281Z,62.85
2022-09-02T06:32:19.052Z,62.38
2022-09-02T06:32:51.706Z,62.53
2022-09-02T06:33:26.859Z,62.90
2022-09-02T06:34:01.068Z,62.63
2022-09-02T06:34:37.495Z,62.53
2022-09-02T06:35:10.796Z,62.67
2022-09-02T06:35:45.987Z,62.60
2022-09-02T06:36:28.321Z,62.88
2022-09-02T06:37:02.046Z,63.88
2022-09-02T06:37:37.887Z,63.42
2022-09-02T06:38:11.223Z,62.75
2022-09-02T06:38:48.894Z,63.20
2022-09-02T06:39:25.945Z,62.97
2022-09-02T06:40:00.964Z,62.30
2022-09-02T06:40:35.063Z,62.53
2022-09-02T06:41:09.113Z,62.53
2022-09-02T06:41:49.025Z,62.25
2022-09-02T06:42:24.400Z,62.55
2022-09-02T06:43:42.762Z,63.03
2022-09-02T06:44:25.738Z,62.72
2022-09-02T06:44:59.365Z,62.83
2022-09-02T06:45:32.112Z,62.60
2022-09-02T06:46:13.858Z,63.17
2022-09-02T06:46:54.242Z,62.78
2022-09-02T06:47:27.264Z,62.88
2022-09-02T06:47:59.863Z,62.63
2022-09-02T06:48:33.855Z,62.72
2022-09-02T06:49:08.328Z,63.13
2022-09-02T06:49:40.939Z,62.50
2022-09-02T06:50:15.372Z,63.38
2022-09-02T06:50:48.119Z,62.83
2022-09-02T06:51:23.658Z,62.78
2022-09-02T06:52:00.413Z,62.83
2022-09-02T06:52:37.893Z,63.10
2022-09-02T06:53:12.784Z,62.60
2022-09-02T06:53:45.981Z,63.10
2022-09-02T06:54:20.870Z,62.60
2022-09-02T06:54:57.194Z,62.53
2022-09-02T06:55:30.783Z,62.50
2022-09-02T06:56:07.918Z,62.58
2022-09-02T06:56:43.909Z,62.83
2022-09-02T06:57:19.931Z,62.92
2022-09-02T06:57:53.621Z,63.10
2022-09-02T06:58:26.373Z,62.95
2022-09-02T06:59:01.592Z,62.95
2022-09-02T07:00:02.263Z,63.13
2022-09-02T07:00:38.555Z,63.00
2022-09-02T07:01:17.252Z,63.35
2022-09-02T07:01:51.984Z,63.35
2022-09-02T07:02:27.495Z,63.15
2022-09-02T07:03:30.221Z,63.25
2022-09-02T07:04:22.362Z,62.83
2022-09-02T07:05:15.128Z,63.08
2022-09-02T07:05:59.418Z,63.08
2022-09-02T07:06:36.366Z,62.92
2022-09-02T07:07:12.082Z,62.88
2022-09-02T07:07:55.436Z,63.13
2022-09-02T07:08:28.001Z,62.85
2022-09-02T07:09:01.889Z,63.40
2022-09-02T07:09:35.225Z,63.88
2022-09-02T07:10:18.906Z,63.38
2022-09-02T07:10:56.330Z,63.15
2022-09-02T07:11:29.053Z,63.42
2022-09-02T07:12:06.207Z,63.42
2022-09-02T07:12:44.332Z,63.03
2022-09-02T07:13:20.975Z,63.88
2022-09-02T07:13:54.393Z,63.33
2022-09-02T07:14:29.469Z,63.35
2022-09-02T07:15:03.507Z,63.70
2022-09-02T07:15:43.359Z,63.50
2022-09-02T07:16:22.691Z,63.60
2022-09-02T07:17:00.977Z,63.83
2022-09-02T07:17:36.941Z,63.92
2022-09-02T07:18:12.752Z,63.50
2022-09-02T07:18:47.009Z,63.40
2022-09-02T07:19:21.281Z,64.60
2022-09-02T07:19:59.348Z,63.60
2022-09-02T07:20:33.658Z,63.67
2022-09-02T07:21:09.867Z,63.55
2022-09-02T07:21:44.202Z,63.63
2022-09-02T07:22:19.088Z,63.83
2022-09-02T07:22:56.209Z,63.65
2022-09-02T07:23:31.883Z,63.90
2022-09-02T07:24:05.490Z,64.15
2022-09-02T07:24:39.899Z,64.35
2022-09-02T07:25:13.725Z,64.40
2022-09-02T07:25:46.586Z,63.70
2022-09-02T07:26:20.540Z,63.85
2022-09-02T07:26:53.620Z,64.32
2022-09-02T07:27:28.859Z,63.58
2022-09-02T07:28:05.073Z,64.30
2022-09-02T07:28:39.551Z,64.20
2022-09-02T07:29:13.658Z,64.00
2022-09-02T07:29:49.013Z,64.00
2022-09-02T07:30:23.509Z,64.10
2022-09-02T07:31:02.784Z,64.53